Time;durP1;ratioP1;P1;durP2;ratioP2;P2;SDS_P1;SDS_P2;PMS_P1;PMS_P2;Temp;Humidity;BMP_temperature;BMP_pressure;BME280_temperature;BME280_humidity;BME280_pressure;Samples;Min_cycle;Max_cycle;Signal;HPM_P1;HPM_P2
2021/03/06 00:00:42;;;;;;;7.08;2.60;;;;;;;-1.04;58.08;99328.06;1815592;79;21726;-63
2021/03/06 00:03:10;;;;;;;7.65;3.02;;;;;;;-1.10;58.14;99320.97;1818436;79;21138;-61
2021/03/06 00:05:38;;;;;;;5.67;2.87;;;;;;;-1.14;58.23;99323.71;1818790;79;21133;-62
2021/03/06 00:08:07;;;;;;;7.85;3.75;;;;;;;-1.18;58.41;99334.42;1818423;79;21150;-60
2021/03/06 00:10:34;;;;;;;7.05;3.08;;;;;;;-1.21;58.49;99324.10;1818837;79;21133;-62
2021/03/06 00:13:02;;;;;;;10.20;3.92;;;;;;;-1.24;58.55;99326.45;1818723;79;21365;-62
2021/03/06 00:15:31;;;;;;;3.90;2.05;;;;;;;-1.28;58.61;99328.69;1818455;79;21300;-64
2021/03/06 00:17:58;;;;;;;8.38;2.77;;;;;;;-1.33;58.72;99328.39;1818776;79;21161;-66
2021/03/06 00:20:27;;;;;;;5.70;2.47;;;;;;;-1.39;59.00;99331.81;1818664;79;21110;-60
2021/03/06 00:22:55;;;;;;;5.30;2.72;;;;;;;-1.41;59.22;99333.36;1818430;79;21284;-63
2021/03/06 00:25:24;;;;;;;5.40;2.10;;;;;;;-1.44;59.28;99349.62;1818791;79;21291;-62
2021/03/06 00:27:52;;;;;;;5.72;3.00;;;;;;;-1.47;58.99;99340.58;1818456;79;21134;-61
2021/03/06 00:30:22;;;;;;;6.33;2.75;;;;;;;-1.53;58.64;99339.77;1818781;79;21560;-61
2021/03/06 00:32:49;;;;;;;5.67;2.40;;;;;;;-1.59;58.67;99340.25;1823321;79;21165;-60
2021/03/06 00:35:17;;;;;;;4.05;1.85;;;;;;;-1.62;58.69;99331.20;1824590;79;21280;-62
2021/03/06 00:37:45;;;;;;;6.90;2.10;;;;;;;-1.67;57.66;99328.77;1824800;79;21173;-67
2021/03/06 00:40:14;;;;;;;4.85;2.02;;;;;;;-1.71;57.18;99341.11;1824537;79;21267;-68
2021/03/06 00:42:41;;;;;;;4.87;2.08;;;;;;;-1.76;57.54;99336.61;1824737;79;21285;-68
2021/03/06 00:45:10;;;;;;;5.28;2.08;;;;;;;-1.78;57.52;99342.34;1824875;78;21121;-63
2021/03/06 00:47:38;;;;;;;6.25;2.27;;;;;;;-1.80;57.69;99333.81;1824606;78;21287;-66
2021/03/06 00:50:12;;;;;;;4.33;2.08;;;;;;;-1.83;57.68;99338.64;1824677;79;21525;-60
2021/03/06 00:52:40;;;;;;;6.47;2.55;;;;;;;-1.87;57.78;99343.03;1824536;79;21138;-60
2021/03/06 00:55:10;;;;;;;5.92;2.27;;;;;;;-1.87;58.12;99348.09;1824498;79;21281;-61
2021/03/06 00:57:38;;;;;;;8.55;2.62;;;;;;;-1.91;58.21;99344.46;1824473;79;21139;-59
2021/03/06 01:00:09;;;;;;;5.65;2.10;;;;;;;-1.91;58.32;99352.44;1824702;79;21128;-63
2021/03/06 01:02:37;;;;;;;6.22;1.90;;;;;;;-1.94;58.10;99340.47;1824712;79;21181;-60
2021/03/06 01:05:07;;;;;;;5.03;2.05;;;;;;;-1.94;58.23;99347.19;1824558;78;21347;-61
2021/03/06 01:07:35;;;;;;;5.08;2.20;;;;;;;-1.97;58.21;99356.72;1824471;78;21579;-63
2021/03/06 01:10:14;;;;;;;5.05;2.33;;;;;;;-1.99;58.11;99349.02;1824692;79;21150;-63
2021/03/06 01:12:42;;;;;;;5.30;2.50;;;;;;;-2.00;58.05;99357.78;1824516;79;21283;-62
2021/03/06 01:15:11;;;;;;;9.40;2.15;;;;;;;-2.03;58.24;99344.55;1824498;79;21272;-62
2021/03/06 01:17:39;;;;;;;5.55;2.60;;;;;;;-2.03;58.29;99355.06;1824674;79;21122;-62
2021/03/06 01:20:09;;;;;;;4.55;2.10;;;;;;;-2.06;58.24;99359.88;1824543;79;21264;-63
2021/03/06 01:22:37;;;;;;;5.15;1.90;;;;;;;-2.08;58.27;99353.48;1824835;79;21145;-60
2021/03/06 01:25:07;;;;;;;5.45;2.12;;;;;;;-2.11;58.17;99359.60;1824565;79;21288;-61
2021/03/06 01:27:35;;;;;;;5.37;1.90;;;;;;;-2.11;58.37;99358.70;1824653;79;21553;-62
2021/03/06 01:30:06;;;;;;;3.72;1.62;;;;;;;-2.13;58.05;99356.48;1824599;79;21106;-62
2021/03/06 01:32:34;;;;;;;3.77;1.62;;;;;;;-2.15;57.80;99356.76;1821097;78;21307;-64
2021/03/06 01:35:08;;;;;;;6.70;3.45;;;;;;;-2.14;57.92;99364.42;1818392;79;21130;-61
2021/03/06 01:37:37;;;;;;;4.50;2.05;;;;;;;-2.14;57.91;99354.70;1818685;79;21279;-63
2021/03/06 01:40:12;;;;;;;9.93;2.72;;;;;;;-2.16;57.45;99360.95;1818729;78;21152;-64
2021/03/06 01:42:40;;;;;;;4.12;1.77;;;;;;;-2.19;57.12;99370.83;1818750;79;21251;-59
2021/03/06 01:45:10;;;;;;;5.83;2.12;;;;;;;-2.20;57.31;99372.48;1818954;79;21118;-62
2021/03/06 01:47:38;;;;;;;9.65;2.20;;;;;;;-2.21;57.29;99372.40;1818781;79;21114;-63
2021/03/06 01:50:09;;;;;;;6.15;2.92;;;;;;;-2.22;56.90;99378.20;1818654;79;21142;-61
2021/03/06 01:52:37;;;;;;;5.62;1.95;;;;;;;-2.23;56.54;99378.60;1818808;79;21560;-63
2021/03/06 01:55:06;;;;;;;3.40;1.80;;;;;;;-2.23;56.66;99377.34;1818794;79;21177;-62
2021/03/06 01:57:34;;;;;;;4.60;2.35;;;;;;;-2.23;56.24;99382.78;1818729;78;21288;-63
2021/03/06 02:00:06;;;;;;;5.62;1.95;;;;;;;-2.23;56.17;99385.31;1818553;79;21122;-61
2021/03/06 02:02:37;;;;;;;5.47;2.12;;;;;;;-2.25;56.31;99389.38;1818107;79;21153;-60
2021/03/06 02:05:07;;;;;;;6.70;2.05;;;;;;;-2.26;56.03;99388.91;1818760;78;21308;-57
2021/03/06 02:07:34;;;;;;;5.37;2.05;;;;;;;-2.30;55.82;99390.72;1818854;79;21544;-61
2021/03/06 02:10:04;;;;;;;7.00;2.40;;;;;;;-2.32;55.34;99396.05;1818758;79;21137;-62
2021/03/06 02:12:50;;;;;;;6.55;2.52;;;;;;;-2.33;54.57;99403.16;1818951;78;21170;-62
2021/03/06 02:15:35;;;;;;;10.68;2.95;;;;;;;-2.40;54.36;99409.03;1818224;79;21137;-62
2021/03/06 02:18:12;;;;;;;6.35;2.60;;;;;;;-2.41;54.14;99406.42;1767129;79;21146;-64
2021/03/06 02:21:00;;;;;;;4.62;2.08;;;;;;;-2.46;54.25;99413.67;1818274;78;21161;-61
2021/03/06 02:24:09;;;;;;;6.53;2.50;;;;;;;-2.51;54.08;99411.61;1818724;79;21141;-61
2021/03/06 02:27:19;;;;;;;5.55;2.27;;;;;;;-2.57;53.91;99418.39;1818756;79;21130;-61
2021/03/06 02:30:07;;;;;;;8.30;1.67;;;;;;;-2.59;53.97;99423.71;1818765;79;21125;-64
2021/03/06 02:32:46;;;;;;;7.62;1.80;;;;;;;-2.63;53.62;99426.78;1818526;78;21133;-60
2021/03/06 02:35:18;;;;;;;5.80;2.15;;;;;;;-2.66;53.65;99424.05;1818582;79;21261;-60
2021/03/06 02:37:57;;;;;;;4.90;2.15;;;;;;;-2.72;54.04;99429.91;1818737;79;22960;-59
2021/03/06 02:40:26;;;;;;;4.55;1.82;;;;;;;-2.74;53.70;99426.03;1818704;79;21154;-64
2021/03/06 02:42:55;;;;;;;4.87;2.20;;;;;;;-2.76;53.92;99437.67;1818894;79;21138;-59
2021/03/06 02:45:27;;;;;;;6.20;2.60;;;;;;;-2.76;53.72;99440.20;1787812;79;21145;-60
2021/03/06 02:47:57;;;;;;;6.77;2.00;;;;;;;-2.79;53.74;99444.17;1818843;79;21122;-59
2021/03/06 02:50:25;;;;;;;6.70;2.20;;;;;;;-2.80;53.97;99441.12;1818711;79;21293;-61
2021/03/06 02:52:53;;;;;;;4.95;2.05;;;;;;;-2.80;54.19;99446.18;1818848;79;21142;-60
2021/03/06 02:55:23;;;;;;;7.45;2.20;;;;;;;-2.80;53.89;99452.49;1815258;79;21561;-61
2021/03/06 02:58:08;;;;;;;5.15;2.42;;;;;;;-2.84;53.82;99457.33;1818530;79;21166;-60
2021/03/06 03:01:03;;;;;;;7.10;2.35;;;;;;;-2.84;53.93;99456.46;1817796;79;21154;-61
2021/03/06 03:03:56;;;;;;;4.35;1.82;;;;;;;-2.87;54.17;99459.64;1804625;78;21182;-60
2021/03/06 03:06:39;;;;;;;6.85;2.40;;;;;;;-2.89;54.31;99466.23;1818972;79;21135;-62
2021/03/06 03:09:29;;;;;;;5.53;2.15;;;;;;;-2.91;54.32;99474.07;1818853;79;21174;-64
2021/03/06 03:12:06;;;;;;;5.20;2.22;;;;;;;-2.93;54.60;99470.94;1818539;78;21304;-60
2021/03/06 03:14:50;;;;;;;5.08;2.40;;;;;;;-2.97;54.81;99476.17;1818693;79;21138;-65
2021/03/06 03:17:29;;;;;;;5.60;2.37;;;;;;;-3.01;55.10;99469.13;1818641;79;21142;-64
2021/03/06 03:20:34;;;;;;;5.55;2.42;;;;;;;-3.02;55.42;99471.56;1818880;79;21286;-66
2021/03/06 03:23:17;;;;;;;7.45;2.58;;;;;;;-3.04;55.69;99476.48;1818696;79;21138;-64
2021/03/06 03:25:48;;;;;;;7.92;3.00;;;;;;;-3.06;55.80;99478.89;1814855;79;21280;-63
2021/03/06 03:28:17;;;;;;;6.45;2.83;;;;;;;-3.07;56.01;99482.58;1818619;79;21158;-61
2021/03/06 03:30:46;;;;;;;8.43;2.90;;;;;;;-3.09;55.83;99477.80;1818523;79;21158;-59
2021/03/06 03:33:16;;;;;;;6.15;3.08;;;;;;;-3.12;56.12;99486.42;1818695;79;21295;-62
2021/03/06 03:35:45;;;;;;;7.40;3.08;;;;;;;-3.15;55.98;99489.59;1779802;79;21615;-64
2021/03/06 03:38:13;;;;;;;5.78;2.33;;;;;;;-3.19;55.64;99487.99;1786167;80;21295;-62
2021/03/06 03:40:42;;;;;;;5.97;3.12;;;;;;;-3.22;55.75;99486.52;1786606;80;21276;-59
2021/03/06 03:43:10;;;;;;;9.23;3.10;;;;;;;-3.25;56.11;99481.25;1786413;80;21173;-57
2021/03/06 03:45:38;;;;;;;9.90;2.50;;;;;;;-3.28;56.35;99480.25;1786740;80;21149;-60
2021/03/06 03:48:08;;;;;;;6.70;2.75;;;;;;;-3.31;56.48;99482.55;1803926;79;21217;-57
2021/03/06 03:50:36;;;;;;;8.48;3.00;;;;;;;-3.30;56.63;99496.05;1818755;79;21178;-60
2021/03/06 03:53:04;;;;;;;6.83;3.52;;;;;;;-3.32;56.69;99498.44;1818836;79;21174;-61
2021/03/06 03:55:33;;;;;;;6.53;3.30;;;;;;;-3.34;56.84;99494.92;1818928;78;21154;-63
2021/03/06 03:58:02;;;;;;;6.55;2.77;;;;;;;-3.34;56.99;99501.23;1818621;79;21296;-58
2021/03/06 04:00:30;;;;;;;6.40;2.65;;;;;;;-3.38;57.20;99492.95;1818502;79;21162;-62
2021/03/06 04:03:06;;;;;;;7.62;2.77;;;;;;;-3.41;57.42;99495.26;1818658;79;21200;-62
2021/03/06 04:05:35;;;;;;;6.55;3.35;;;;;;;-3.43;57.50;99500.56;1818839;79;21173;-62
2021/03/06 04:08:04;;;;;;;7.00;2.72;;;;;;;-3.45;57.81;99504.61;1818770;78;21146;-61
2021/03/06 04:10:32;;;;;;;8.33;3.00;;;;;;;-3.47;57.84;99499.83;1818712;79;21157;-59
2021/03/06 04:13:00;;;;;;;8.85;3.00;;;;;;;-3.51;57.86;99494.05;1786060;80;21178;-59
2021/03/06 04:15:29;;;;;;;7.17;3.40;;;;;;;-3.56;57.97;99487.42;1785288;80;21209;-58
2021/03/06 04:17:58;;;;;;;5.35;2.80;;;;;;;-3.56;58.15;99500.39;1785648;80;21706;-59
2021/03/06 04:20:26;;;;;;;8.45;3.52;;;;;;;-3.59;58.17;99504.83;1786583;80;21294;-59
2021/03/06 04:22:54;;;;;;;6.60;3.20;;;;;;;-3.62;58.41;99504.60;1786403;80;21272;-60
2021/03/06 04:25:22;;;;;;;7.35;3.37;;;;;;;-3.61;58.53;99501.69;1786377;80;21142;-60
2021/03/06 04:27:53;;;;;;;11.15;3.75;;;;;;;-3.63;58.64;99507.03;1785929;80;21742;-60
2021/03/06 04:30:22;;;;;;;7.28;3.40;;;;;;;-3.65;58.71;99502.24;1786595;80;21150;-58
2021/03/06 04:32:50;;;;;;;6.80;3.42;;;;;;;-3.65;58.77;99506.03;1788172;80;21303;-62
2021/03/06 04:35:18;;;;;;;8.45;3.58;;;;;;;-3.63;58.94;99508.29;1792210;80;21161;-59
2021/03/06 04:37:45;;;;;;;10.50;4.08;;;;;;;-3.63;59.02;99512.07;1792542;80;21271;-61
2021/03/06 04:40:15;;;;;;;9.35;5.10;;;;;;;-3.63;59.25;99515.47;1792531;80;21285;-59
2021/03/06 04:42:43;;;;;;;13.50;5.03;;;;;;;-3.66;59.32;99505.51;1792497;80;21560;-60
2021/03/06 04:45:11;;;;;;;12.33;5.33;;;;;;;-3.67;59.40;99513.85;1792213;80;21149;-61
2021/03/06 04:47:44;;;;;;;13.25;6.00;;;;;;;-3.73;59.58;99512.63;1792221;80;21142;-59
2021/03/06 04:50:14;;;;;;;15.45;6.53;;;;;;;-3.73;59.81;99514.28;1792198;80;21304;-62
2021/03/06 04:52:42;;;;;;;11.20;5.00;;;;;;;-3.70;60.02;99509.45;1792205;80;21364;-60
2021/03/06 04:55:12;;;;;;;11.00;5.40;;;;;;;-3.69;59.98;99512.46;1792223;80;21303;-60
2021/03/06 04:57:39;;;;;;;9.18;4.50;;;;;;;-3.65;60.10;99513.59;1792413;80;21279;-62
2021/03/06 05:00:09;;;;;;;12.73;5.25;;;;;;;-3.24;59.63;99517.06;1792466;80;21275;-62
2021/03/06 05:02:36;;;;;;;14.70;5.40;;;;;;;-2.18;58.02;99516.70;1792388;80;21279;-61
2021/03/06 05:05:07;;;;;;;16.77;7.67;;;;;;;-1.07;54.96;99514.03;1792177;80;21154;-61
2021/03/06 05:07:35;;;;;;;14.28;6.95;;;;;;;-0.06;52.82;99529.36;1792196;80;21184;-61
2021/03/06 05:10:05;;;;;;;18.32;8.35;;;;;;;0.75;50.44;99532.12;1792376;80;21283;-62
2021/03/06 05:12:33;;;;;;;12.58;7.75;;;;;;;1.55;48.36;99535.00;1792196;80;21150;-62
2021/03/06 05:15:01;;;;;;;11.93;6.35;;;;;;;2.20;45.89;99543.61;1792375;80;21287;-58
2021/03/06 05:17:29;;;;;;;16.42;6.62;;;;;;;2.66;44.76;99546.89;1792272;80;21268;-60
2021/03/06 05:19:59;;;;;;;10.38;5.58;;;;;;;3.12;43.34;99552.17;1792501;80;21150;-60
2021/03/06 05:22:27;;;;;;;12.07;5.35;;;;;;;3.64;42.12;99550.50;1785889;80;21155;-60
2021/03/06 05:24:54;;;;;;;10.45;5.42;;;;;;;4.14;40.37;99544.31;1697031;84;21222;-59
2021/03/06 05:27:24;;;;;;;10.35;5.15;;;;;;;4.51;40.17;99560.04;1723980;83;21043;-60
2021/03/06 05:29:53;;;;;;;12.85;5.20;;;;;;;5.02;39.26;99570.33;1725682;83;21190;-61
2021/03/06 05:32:21;;;;;;;10.23;4.65;;;;;;;5.21;37.82;99575.39;1696790;84;21193;-59
2021/03/06 05:34:49;;;;;;;12.18;5.30;;;;;;;5.50;37.33;99579.59;1726101;83;21086;-62
2021/03/06 05:37:16;;;;;;;12.07;6.12;;;;;;;5.91;37.21;99590.63;1723100;83;21031;-60
2021/03/06 05:39:44;;;;;;;14.93;6.15;;;;;;;6.53;36.49;99594.73;1697491;84;21055;-61
2021/03/06 05:42:15;;;;;;;11.05;5.60;;;;;;;7.14;34.71;99593.08;1722934;83;21188;-61
2021/03/06 05:44:43;;;;;;;11.78;5.20;;;;;;;7.03;34.82;99596.98;1697681;83;21067;-62
2021/03/06 05:47:13;;;;;;;11.73;5.33;;;;;;;7.50;34.19;99590.02;1722940;83;21169;-61
2021/03/06 05:49:41;;;;;;;9.55;4.78;;;;;;;7.67;33.28;99596.14;1697331;84;21210;-58
2021/03/06 05:52:09;;;;;;;9.78;4.35;;;;;;;7.66;33.19;99602.08;1722840;83;21114;-61
2021/03/06 05:54:38;;;;;;;9.53;4.40;;;;;;;8.30;32.13;99595.55;1697240;83;21202;-61
2021/03/06 05:57:08;;;;;;;10.95;4.40;;;;;;;8.73;31.57;99608.00;1700407;83;21213;-61
2021/03/06 05:59:36;;;;;;;8.35;4.22;;;;;;;9.10;31.06;99618.89;1697470;84;21086;-62
2021/03/06 06:02:04;;;;;;;8.33;3.90;;;;;;;9.65;30.11;99619.48;1722991;83;21054;-61
2021/03/06 06:04:35;;;;;;;8.75;4.55;;;;;;;10.01;29.06;99619.92;1697201;84;21227;-59
2021/03/06 06:07:05;;;;;;;;;;;;;;;10.33;28.51;99637.87;1725353;83;21671;-61
2021/03/06 06:09:34;;;;;;;7.12;3.70;;;;;;;10.64;28.37;99635.14;1722814;83;20402;-60
2021/03/06 06:12:07;;;;;;;7.12;3.25;;;;;;;11.18;27.40;99636.23;1697335;84;21058;-61
2021/03/06 06:14:40;;;;;;;8.48;4.35;;;;;;;11.43;26.97;99640.15;1722851;83;21208;-60
2021/03/06 06:17:10;;;;;;;6.75;3.52;;;;;;;11.66;26.35;99644.87;1697242;84;21066;-61
2021/03/06 06:19:39;;;;;;;9.83;4.40;;;;;;;11.85;26.35;99650.78;1723214;83;21237;-63
2021/03/06 06:22:24;;;;;;;7.45;4.42;;;;;;;12.70;25.53;99652.98;1697414;84;21062;-62
2021/03/06 06:25:03;;;;;;;8.23;4.20;;;;;;;13.16;24.83;99656.57;1723069;83;21201;-63
2021/03/06 06:27:33;;;;;;;7.62;3.75;;;;;;;12.97;24.38;99667.98;1697502;84;21205;-63
2021/03/06 06:30:11;;;;;;;7.45;3.95;;;;;;;12.59;23.99;99657.12;1723071;83;21096;-62
2021/03/06 06:32:45;;;;;;;8.28;3.60;;;;;;;12.54;24.26;99662.26;1697402;84;21079;-61
2021/03/06 06:35:15;;;;;;;7.12;4.00;;;;;;;12.69;24.13;99668.48;1722396;83;21240;-62
2021/03/06 06:38:06;;;;;;;7.37;3.45;;;;;;;12.88;23.96;99672.20;1697098;84;21194;-62
2021/03/06 06:40:38;;;;;;;7.83;3.60;;;;;;;12.94;23.65;99672.27;1697209;84;21027;-62
2021/03/06 06:43:22;;;;;;;11.15;4.25;;;;;;;13.18;23.44;99671.28;1726147;83;21076;-62
2021/03/06 06:45:50;;;;;;;10.98;4.20;;;;;;;13.36;23.32;99675.84;1697056;84;21023;-63
2021/03/06 06:48:19;;;;;;;7.25;3.75;;;;;;;13.63;23.50;99679.14;1725976;83;21489;-62
2021/03/06 06:50:47;;;;;;;6.40;3.20;;;;;;;14.08;22.90;99675.23;1696844;84;21082;-63
2021/03/06 06:53:27;;;;;;;7.85;3.47;;;;;;;14.22;21.78;99677.06;1725778;83;21276;-63
2021/03/06 06:55:55;;;;;;;6.80;3.30;;;;;;;14.04;22.02;99679.97;1697088;84;21066;-60
2021/03/06 06:58:36;;;;;;;7.28;3.58;;;;;;;13.36;22.06;99670.66;1726966;83;21619;-60
2021/03/06 07:01:32;;;;;;;6.85;3.87;;;;;;;13.32;22.21;99682.27;1695220;84;21091;-60
2021/03/06 07:04:08;;;;;;;7.03;3.90;;;;;;;14.01;21.68;99683.81;1696881;84;21063;-61
2021/03/06 07:06:48;;;;;;;10.43;3.05;;;;;;;14.92;21.07;99694.88;1850788;77;22180;-63
2021/03/06 07:09:15;;;;;;;6.72;3.08;;;;;;;15.86;19.91;99691.30;1727630;82;21284;-61
2021/03/06 07:11:44;;;;;;;6.30;2.70;;;;;;;16.27;19.00;99689.56;1759975;81;21154;-61
2021/03/06 07:14:12;;;;;;;5.62;2.30;;;;;;;15.88;19.38;99693.48;1756501;81;21292;-62
2021/03/06 07:17:00;;;;;;;8.53;2.98;;;;;;;15.86;19.68;99700.41;1759723;81;21135;-64
2021/03/06 07:19:35;;;;;;;7.53;2.60;;;;;;;15.86;19.68;99700.41;1756489;81;21300;-60
2021/03/06 07:22:02;;;;;;;6.35;3.02;;;;;;;15.50;17.79;99694.23;1730286;81;21600;-62
2021/03/06 07:24:30;;;;;;;6.47;3.00;;;;;;;15.17;18.76;99694.55;1756282;82;21146;-62
2021/03/06 07:26:59;;;;;;;6.78;2.90;;;;;;;15.43;17.90;99699.84;1759824;81;21174;-62
2021/03/06 07:29:29;;;;;;;6.25;2.72;;;;;;;15.20;17.97;99699.32;1756353;82;21122;-63
2021/03/06 07:31:59;;;;;;;8.55;3.33;;;;;;;15.29;18.35;99699.81;1759879;81;21126;-61
2021/03/06 07:34:30;;;;;;;5.17;2.62;;;;;;;15.66;17.78;99699.90;1756828;82;21673;-62
2021/03/06 07:37:06;;;;;;;7.50;2.92;;;;;;;16.01;17.51;99702.59;1759923;81;21166;-63
2021/03/06 07:39:44;;;;;;;5.65;2.40;;;;;;;15.82;17.68;99713.43;1756499;81;21300;-62
2021/03/06 07:42:43;;;;;;;5.80;2.22;;;;;;;16.25;18.13;99713.44;1759785;81;21166;-63
2021/03/06 07:45:21;;;;;;;5.45;1.75;;;;;;;16.46;17.15;99707.78;1756412;81;21300;-62
2021/03/06 07:48:09;;;;;;;8.05;3.10;;;;;;;16.04;17.37;99713.44;1759854;81;21280;-61
2021/03/06 07:50:42;;;;;;;7.65;2.42;;;;;;;14.90;18.07;99714.34;1756271;82;21315;-62
2021/03/06 07:53:13;;;;;;;6.70;2.10;;;;;;;14.61;18.34;99714.61;1759849;81;21279;-64
2021/03/06 07:55:41;;;;;;;5.15;1.98;;;;;;;14.25;18.52;99712.16;1756486;81;21357;-62
2021/03/06 07:58:18;;;;;;;5.45;2.08;;;;;;;14.25;18.60;99713.45;1760050;81;21293;-62
2021/03/06 08:00:57;;;;;;;5.42;2.50;;;;;;;14.22;18.50;99712.11;1753113;81;21743;-62
2021/03/06 08:03:34;;;;;;;6.37;2.50;;;;;;;14.12;18.62;99708.59;1759734;81;21162;-61
2021/03/06 08:06:24;;;;;;;4.90;1.87;;;;;;;14.36;18.94;99718.29;1753315;82;21320;-60
2021/03/06 08:08:58;;;;;;;5.03;2.30;;;;;;;14.73;18.63;99717.27;1820936;79;21153;-62
2021/03/06 08:11:39;;;;;;;4.72;2.22;;;;;;;15.41;18.38;99718.03;1820981;78;21672;-61
2021/03/06 08:14:34;;;;;;;7.17;2.30;;;;;;;15.99;17.60;99717.78;1820139;79;21127;-62
2021/03/06 08:17:03;;;;;;;6.67;2.30;;;;;;;16.04;17.64;99710.84;1820440;79;21170;-63
2021/03/06 08:19:31;;;;;;;5.00;1.92;;;;;;;15.87;18.23;99720.36;1820242;79;21272;-63
2021/03/06 08:22:15;;;;;;;3.83;1.65;;;;;;;15.60;17.28;99714.21;1819983;79;21114;-63
2021/03/06 08:24:44;;;;;;;5.60;1.90;;;;;;;15.19;17.95;99721.44;1820250;78;21173;-59
2021/03/06 08:27:14;;;;;;;5.25;2.00;;;;;;;15.17;18.28;99714.05;1820164;79;21275;-63
2021/03/06 08:29:48;;;;;;;4.67;2.00;;;;;;;14.81;18.24;99705.21;1819676;79;21529;-62
2021/03/06 08:32:32;;;;;;;4.70;1.85;;;;;;;14.55;18.68;99712.82;1820034;79;21134;-60
2021/03/06 08:35:22;;;;;;;6.58;2.05;;;;;;;14.26;18.75;99712.58;1820206;78;21134;-60
2021/03/06 08:37:51;;;;;;;6.17;2.17;;;;;;;13.31;19.40;99716.83;1820104;79;21154;-61
2021/03/06 08:40:24;;;;;;;7.40;1.80;;;;;;;12.73;20.11;99711.28;1820106;79;21253;-61
2021/03/06 08:42:54;;;;;;;3.95;1.60;;;;;;;12.68;20.25;99697.40;1819993;79;21170;-61
2021/03/06 08:45:30;;;;;;;6.12;1.92;;;;;;;12.03;21.09;99701.13;1819954;78;21154;-62
2021/03/06 08:48:05;;;;;;;5.00;2.15;;;;;;;12.03;21.09;99701.13;1819961;79;21281;-62
2021/03/06 08:50:38;;;;;;;5.45;2.05;;;;;;;11.98;20.65;99691.12;1820148;79;21138;-60
2021/03/06 08:53:10;;;;;;;6.80;2.37;;;;;;;11.01;21.30;99691.41;1820155;79;21285;-61
2021/03/06 08:55:40;;;;;;;5.78;1.65;;;;;;;10.09;21.96;99698.33;1820214;79;21142;-60
2021/03/06 08:58:11;;;;;;;6.95;1.80;;;;;;;9.52;22.72;99703.33;1820311;79;21149;-62
2021/03/06 09:00:47;;;;;;;3.60;1.47;;;;;;;9.02;22.96;99697.63;1820455;79;21656;-62
2021/03/06 09:03:24;;;;;;;5.15;1.77;;;;;;;8.52;22.89;99693.53;1820185;79;21660;-62
2021/03/06 09:05:58;;;;;;;5.58;1.80;;;;;;;7.36;24.06;99692.69;1750525;82;21174;-61
2021/03/06 09:08:28;;;;;;;3.98;1.75;;;;;;;6.94;24.89;99700.56;1820008;78;21127;-61
2021/03/06 09:10:58;;;;;;;4.53;1.75;;;;;;;6.58;25.58;99693.23;1820003;79;21154;-61
2021/03/06 09:13:31;;;;;;;4.95;2.17;;;;;;;6.29;26.03;99678.88;1820103;79;21288;-61
2021/03/06 09:16:06;;;;;;;;;;;;;;;6.11;26.43;99692.24;1822638;79;21154;-61
2021/03/06 09:18:38;;;;;;;4.08;1.80;;;;;;;5.88;26.46;99695.12;1819951;79;20145;-61
2021/03/06 09:21:25;;;;;;;5.85;2.27;;;;;;;5.59;26.76;99698.59;1820038;78;21179;-61
2021/03/06 09:23:54;;;;;;;4.20;1.60;;;;;;;5.59;27.31;99697.30;1819959;78;21139;-61
2021/03/06 09:26:26;;;;;;;5.12;1.80;;;;;;;5.69;27.16;99701.55;1819924;79;21308;-62
2021/03/06 09:28:56;;;;;;;10.13;2.27;;;;;;;5.52;26.84;99699.16;1820151;79;21142;-62
2021/03/06 09:31:28;;;;;;;4.83;1.60;;;;;;;4.79;27.75;99692.94;1819973;78;21162;-62
2021/03/06 09:34:03;;;;;;;6.80;1.90;;;;;;;4.11;28.05;99694.88;1820047;79;21139;-63
2021/03/06 09:36:31;;;;;;;6.60;1.90;;;;;;;3.75;28.83;99695.64;1819643;78;21616;-62
2021/03/06 09:39:02;;;;;;;4.47;2.20;;;;;;;3.41;29.54;99690.99;1820292;78;21143;-61
2021/03/06 09:41:38;;;;;;;4.58;1.90;;;;;;;3.14;30.53;99680.23;1820489;79;22106;-62
2021/03/06 09:44:09;;;;;;;5.47;2.15;;;;;;;2.95;30.05;99686.06;1820271;78;21387;-62
2021/03/06 09:46:38;;;;;;;4.03;1.85;;;;;;;2.78;30.55;99694.48;1820100;78;21225;-62
2021/03/06 09:49:14;;;;;;;4.45;1.65;;;;;;;2.77;31.19;99687.24;1820128;79;21111;-61
2021/03/06 09:51:55;;;;;;;5.33;1.72;;;;;;;2.58;30.70;99685.76;1820040;79;21288;-60
2021/03/06 09:54:26;;;;;;;5.97;2.45;;;;;;;2.37;30.62;99690.16;1820359;79;21263;-63
2021/03/06 09:57:00;;;;;;;6.78;2.22;;;;;;;2.30;31.10;99688.07;1820345;79;21629;-62
2021/03/06 09:59:41;;;;;;;6.90;2.67;;;;;;;2.43;31.70;99687.07;1820120;79;21115;-60
2021/03/06 10:02:14;;;;;;;6.05;2.72;;;;;;;2.56;31.89;99684.39;1820089;79;21351;-61
2021/03/06 10:04:47;;;;;;;6.35;2.40;;;;;;;2.55;32.41;99680.51;1819897;79;21130;-61
2021/03/06 10:07:25;;;;;;;7.72;2.33;;;;;;;2.47;32.00;99680.46;1820079;78;21316;-60
2021/03/06 10:09:49;;;;;;;11.00;2.95;;;;;;;2.45;32.27;99689.72;1819035;79;21731;-63
2021/03/06 10:12:18;;;;;;;6.90;2.87;;;;;;;2.59;32.69;99686.23;1820121;79;21288;-62
2021/03/06 10:14:51;;;;;;;5.28;2.55;;;;;;;2.88;32.71;99679.28;1820180;79;21268;-60
2021/03/06 10:17:23;;;;;;;6.12;2.27;;;;;;;3.15;32.64;99675.60;1820137;79;21325;-62
2021/03/06 10:19:55;;;;;;;10.70;2.47;;;;;;;3.42;32.40;99662.52;1819952;79;21146;-63
2021/03/06 10:22:23;;;;;;;6.95;2.22;;;;;;;3.55;31.93;99675.09;1820093;79;21173;-62
2021/03/06 10:25:04;;;;;;;5.37;1.60;;;;;;;3.61;31.42;99674.14;1819889;79;21276;-63
2021/03/06 10:27:46;;;;;;;4.45;1.67;;;;;;;3.47;30.83;99658.53;1820047;79;21585;-62
2021/03/06 10:30:32;;;;;;;6.12;2.33;;;;;;;3.10;30.53;99670.66;1819890;78;21123;-60
2021/03/06 10:33:03;;;;;;;4.78;2.20;;;;;;;3.01;31.05;99665.98;1819736;79;21283;-62
2021/03/06 10:35:49;;;;;;;10.18;2.12;;;;;;;3.09;31.65;99653.62;1819965;79;21158;-62
2021/03/06 10:38:31;;;;;;;6.62;2.15;;;;;;;3.03;31.74;99652.91;1820075;79;21292;-61
2021/03/06 10:41:01;;;;;;;9.53;2.75;;;;;;;3.05;31.49;99664.45;1819917;79;21300;-62
2021/03/06 10:43:41;;;;;;;5.90;2.25;;;;;;;3.28;31.46;99668.59;1820175;79;21549;-61
2021/03/06 10:46:24;;;;;;;6.35;2.33;;;;;;;3.68;31.32;99653.20;1819983;78;21541;-62
2021/03/06 10:48:59;;;;;;;6.55;2.08;;;;;;;3.75;30.41;99649.69;1750620;82;21148;-61
2021/03/06 10:51:54;;;;;;;4.80;2.05;;;;;;;3.51;30.60;99626.00;1820161;78;21260;-61
2021/03/06 10:54:22;;;;;;;6.20;1.98;;;;;;;3.34;31.33;99645.96;1819314;79;21138;-60
2021/03/06 10:57:05;;;;;;;5.20;2.33;;;;;;;3.22;31.53;99630.49;1820469;78;21103;-61
2021/03/06 10:59:35;;;;;;;6.08;2.62;;;;;;;3.09;30.99;99641.28;1820158;79;21576;-63
2021/03/06 11:02:04;;;;;;;4.65;2.10;;;;;;;2.96;31.56;99645.73;1820175;79;21560;-62
2021/03/06 11:04:35;;;;;;;10.18;2.30;;;;;;;2.90;31.89;99645.43;1820079;79;21146;-61
2021/03/06 11:07:07;;;;;;;6.17;2.35;;;;;;;2.87;32.00;99650.34;1819947;79;21158;-62
2021/03/06 11:09:39;;;;;;;6.33;1.75;;;;;;;2.94;32.15;99637.53;1819923;79;21115;-61
2021/03/06 11:12:30;;;;;;;4.90;1.75;;;;;;;2.89;32.33;99647.48;1819874;79;21110;-62
2021/03/06 11:15:14;;;;;;;9.35;2.12;;;;;;;2.92;33.05;99654.41;1818933;79;21145;-61
2021/03/06 11:17:45;;;;;;;6.37;1.80;;;;;;;3.11;33.22;99645.66;1820091;79;21107;-63
2021/03/06 11:20:16;;;;;;;3.75;1.57;;;;;;;3.34;33.02;99643.41;1820390;79;21672;-60
2021/03/06 11:22:46;;;;;;;6.80;2.02;;;;;;;3.32;32.26;99622.04;1820147;78;21142;-62
2021/03/06 11:25:16;;;;;;;3.72;1.47;;;;;;;3.18;32.56;99635.35;1820140;79;21134;-61
2021/03/06 11:27:53;;;;;;;2.45;1.30;;;;;;;3.10;32.37;99608.19;1820073;79;21153;-61
2021/03/06 11:30:35;;;;;;;7.22;1.90;;;;;;;2.88;32.48;99625.75;1820036;79;21581;-60
2021/03/06 11:33:07;;;;;;;4.80;1.80;;;;;;;2.81;32.91;99640.71;1819757;79;21162;-61
2021/03/06 11:35:37;;;;;;;5.83;1.60;;;;;;;2.95;33.19;99636.72;1820234;79;21711;-60
2021/03/06 11:38:10;;;;;;;6.70;1.82;;;;;;;3.18;33.42;99631.16;1819864;79;21304;-60
2021/03/06 11:40:43;;;;;;;5.25;1.67;;;;;;;3.28;33.95;99622.27;1819901;79;21142;-61
2021/03/06 11:43:11;;;;;;;5.25;1.80;;;;;;;3.19;34.22;99639.27;1819885;79;21170;-63
2021/03/06 11:45:40;;;;;;;5.28;2.17;;;;;;;3.08;34.73;99625.48;1820022;79;21264;-61
2021/03/06 11:48:09;;;;;;;4.65;2.15;;;;;;;2.73;35.56;99631.80;1820069;79;21269;-61
2021/03/06 11:50:42;;;;;;;6.42;1.80;;;;;;;2.48;36.21;99624.52;1820104;79;21146;-61
2021/03/06 11:53:13;;;;;;;5.08;2.22;;;;;;;2.52;36.14;99630.27;1750871;82;21282;-62
2021/03/06 11:55:42;;;;;;;5.25;2.30;;;;;;;2.64;35.80;99627.47;1750835;82;21572;-62
2021/03/06 11:58:12;;;;;;;5.10;1.95;;;;;;;2.80;34.82;99619.86;1820095;79;21154;-61
2021/03/06 12:00:39;;;;;;;8.00;2.22;;;;;;;2.77;34.26;99621.34;1820016;79;21107;-59
2021/03/06 12:03:08;;;;;;;6.30;2.85;;;;;;;2.77;34.54;99623.52;1820005;79;21139;-63